Airfield :
LOGIN :

Register | Disclaimer

   EN    FR    IT 

 










Legend :    VFR   Marginal VFR   IFR   Intensive IFR   Very Intensive IFR
Visi :
Ceiling :
>= 8 km
>= 3000ft
5 to 8 km
1000 to 3000 ft
1500m to 5 km
500 to 1000 ft
800 to 1500m
200 to 500 ft
< 800m
< 200 ft
Symbols :   Thunderstorms  Fog  Heavy snow  Heavy precipitations  Wind > 20 kt
SIGMETs :     Misc.  Thunderstorms  Icing  Turbulence  Mountain Waves  Volcanic Ashes






- Airport Elevation : 120 ft
- IATA code : MME


EGNV - Durham Tees valley

CURRENT METAR :
  • 081450Z 08009KT 9999 FEW020 BKN042 15/10 Q1016

EXPIRED METARs :
  • 081420Z 05007KT 9999 FEW018 BKN040 15/10 Q1016
  • 081350Z 05009KT 9999 FEW018 BKN036 14/10 Q1016
  • 081320Z 06010KT 9999 SCT023 BKN040 15/10 Q1016
  • 081250Z 04011KT 9999 SCT022 SCT040 15/10 Q1016
  • 081220Z 04013KT 9999 SCT022 SCT036 15/10 Q1016

TAF TAF EGNV
Valid from the 08 at 15:00 until the 08 at 21:00 UTC


081359Z 0815/0821 09010KT 9999 SCT025
PROB30
TEMPO 0815/0818 7000 SHRA BKN014
PROB30
TEMPO 0818/0821 7000 RA BKN014
ATIS : +44 9012 018 111



MET'MAP, your aeronautical weather chart ! - Copyright ORBIFLY December 2007 - Disclaimer

ORBIFLY MET'MAP TEAM :

Programming & Development : Alexandra Zaïnal
Concept & original design : Baudouin d'Aumeries
Assistance for programming : Marc-Olivier Méhu
Technical & hardware support : Manuel Goepfert

Contact : metmap@orbifly.com




SOURCES & CREDITS :

   NOAA